createdAt,value
2023-05-13T00:00:06.963Z,99713.31
2023-05-13T00:02:55.699Z,99717.16
2023-05-13T00:05:22.735Z,99708.75
2023-05-13T00:07:50.183Z,99711.31
2023-05-13T00:10:17.131Z,99713.88
2023-05-13T00:12:44.420Z,99715.66
2023-05-13T00:15:11.772Z,99720.91
2023-05-13T00:17:39.122Z,99716.34
2023-05-13T00:20:07.424Z,99711.56
2023-05-13T00:22:34.630Z,99712.00
2023-05-13T00:25:01.650Z,99713.06
2023-05-13T00:27:28.803Z,99724.03
2023-05-13T00:29:56.005Z,99719.59
2023-05-13T00:32:23.249Z,99716.78
2023-05-13T00:34:50.569Z,99719.06
2023-05-13T00:37:18.037Z,99718.34
2023-05-13T00:39:45.472Z,99721.38
2023-05-13T00:42:13.673Z,99713.88
2023-05-13T00:44:41.325Z,99720.16
2023-05-13T00:47:11.991Z,99721.44
2023-05-13T00:49:39.210Z,99717.59
2023-05-13T00:52:06.900Z,99729.34
2023-05-13T00:54:34.955Z,99727.69
2023-05-13T00:57:02.170Z,99732.63
2023-05-13T00:59:30.820Z,99728.91
2023-05-13T01:02:14.324Z,99730.53
2023-05-13T01:05:03.008Z,99737.63
2023-05-13T01:07:52.526Z,99745.88
2023-05-13T01:10:41.713Z,99740.53
2023-05-13T01:13:14.454Z,99743.06
2023-05-13T01:16:06.989Z,99753.88
2023-05-13T01:18:43.432Z,99751.88
2023-05-13T01:21:12.330Z,99755.59
2023-05-13T01:23:39.542Z,99756.88
2023-05-13T01:26:06.735Z,99755.47
2023-05-13T01:28:34.650Z,99754.88
2023-05-13T01:31:02.998Z,99764.78
2023-05-13T01:33:32.020Z,99757.41
2023-05-13T01:35:59.379Z,99759.50
2023-05-13T01:38:28.168Z,99764.84
2023-05-13T01:40:58.958Z,99756.69
2023-05-13T01:43:28.090Z,99766.22
2023-05-13T01:45:56.076Z,99765.00
2023-05-13T01:48:24.400Z,99771.72
2023-05-13T01:50:52.570Z,99764.72
2023-05-13T01:53:20.256Z,99768.88
2023-05-13T01:55:49.074Z,99771.78
2023-05-13T01:58:16.244Z,99780.63
2023-05-13T02:00:43.248Z,99769.31
2023-05-13T02:03:10.864Z,99766.88
2023-05-13T02:05:37.852Z,99771.84
2023-05-13T02:08:07.995Z,99766.94
2023-05-13T02:10:35.008Z,99771.94
2023-05-13T02:13:03.844Z,99776.31
2023-05-13T02:15:31.633Z,99772.44
2023-05-13T02:17:59.375Z,99778.81
2023-05-13T02:20:26.512Z,99781.34
2023-05-13T02:22:53.686Z,99781.81
2023-05-13T02:25:20.975Z,99777.88
2023-05-13T02:27:48.119Z,99780.81
2023-05-13T02:30:15.367Z,99783.81
2023-05-13T02:32:43.962Z,99785.44
2023-05-13T02:35:11.075Z,99790.19
2023-05-13T02:37:38.350Z,99788.16
2023-05-13T02:40:06.378Z,99790.41
2023-05-13T02:42:33.602Z,99790.41
2023-05-13T02:45:00.664Z,99788.75
2023-05-13T02:47:32.022Z,99793.91
2023-05-13T02:50:05.864Z,99787.34
2023-05-13T02:52:35.822Z,99797.88
2023-05-13T02:55:07.692Z,99803.66
2023-05-13T02:57:37.782Z,99804.53
2023-05-13T03:00:06.100Z,99803.34
2023-05-13T03:02:35.000Z,99801.69
2023-05-13T03:05:02.086Z,99801.69
2023-05-13T03:07:29.295Z,99805.41
2023-05-13T03:09:56.276Z,99809.56
2023-05-13T03:12:23.715Z,99804.81
2023-05-13T03:14:50.966Z,99803.78
2023-05-13T03:17:18.292Z,99800.03
2023-05-13T03:19:45.427Z,99816.09
2023-05-13T03:22:12.593Z,99807.47
2023-05-13T03:24:39.492Z,99809.94
2023-05-13T03:27:06.762Z,99811.22
2023-05-13T03:29:33.882Z,99808.91
2023-05-13T03:32:01.123Z,99818.94
2023-05-13T03:34:28.354Z,99821.44
2023-05-13T03:36:55.687Z,99818.53
2023-05-13T03:39:22.953Z,99816.44
2023-05-13T03:41:50.208Z,99823.22
2023-05-13T03:44:17.250Z,99820.94
2023-05-13T03:46:44.687Z,99821.75
2023-05-13T03:49:12.300Z,99831.63
2023-05-13T03:51:39.874Z,99830.38
2023-05-13T03:54:07.490Z,99836.56
2023-05-13T03:56:34.667Z,99836.34
2023-05-13T03:59:01.987Z,99833.44
2023-05-13T04:01:30.114Z,99838.78
2023-05-13T04:03:57.073Z,99846.38
2023-05-13T04:06:24.358Z,99842.69
2023-05-13T04:08:51.669Z,99846.38
2023-05-13T04:11:18.900Z,99845.53
2023-05-13T04:13:47.857Z,99841.38
2023-05-13T04:16:17.266Z,99837.22
2023-05-13T04:18:44.272Z,99835.34
2023-05-13T04:21:11.537Z,99835.16
2023-05-13T04:23:38.492Z,99830.41
2023-05-13T04:26:05.835Z,99852.00
2023-05-13T04:28:32.829Z,99849.50
2023-05-13T04:31:02.849Z,99847.41
2023-05-13T04:33:32.775Z,99849.44
2023-05-13T04:36:00.275Z,99841.16
2023-05-13T04:38:27.550Z,99853.09
2023-05-13T04:40:54.891Z,99854.69
2023-05-13T04:43:36.995Z,99862.03
2023-05-13T04:46:04.462Z,99855.78
2023-05-13T04:48:31.591Z,99857.00
2023-05-13T04:50:59.018Z,99863.72
2023-05-13T04:53:27.059Z,99865.50
2023-05-13T05:00:50.829Z,99865.50
2023-05-13T05:04:44.842Z,99857.31
2023-05-13T05:07:15.529Z,99864.16
2023-05-13T05:09:42.930Z,99857.00
2023-05-13T05:13:44.725Z,99867.13
2023-05-13T05:16:18.370Z,99869.31
2023-05-13T05:18:45.802Z,99862.84
2023-05-13T05:21:13.396Z,99867.56
2023-05-13T05:23:41.290Z,99871.66
2023-05-13T05:26:59.803Z,99866.78
2023-05-13T05:34:42.349Z,99865.03
2023-05-13T05:37:10.376Z,99870.53
2023-05-13T05:39:38.673Z,99870.16
2023-05-13T05:42:07.555Z,99871.25
2023-05-13T05:44:34.851Z,99876.34
2023-05-13T05:47:02.746Z,99875.41
2023-05-13T05:49:29.837Z,99867.75
2023-05-13T05:51:57.628Z,99867.19
2023-05-13T05:54:26.879Z,99872.91
2023-05-13T05:56:54.227Z,99868.91
2023-05-13T05:59:21.484Z,99867.06
2023-05-13T06:01:49.403Z,99864.44
2023-05-13T06:04:17.394Z,99875.41
2023-05-13T06:06:45.957Z,99863.50
2023-05-13T06:09:12.995Z,99873.50
2023-05-13T06:11:40.321Z,99863.75
2023-05-13T06:14:07.272Z,99868.59
2023-05-13T06:16:34.523Z,99860.69
2023-05-13T06:19:02.454Z,99859.75
2023-05-13T06:21:29.635Z,99864.66
2023-05-13T06:23:56.553Z,99871.25
2023-05-13T06:26:24.996Z,99861.31
2023-05-13T06:28:51.912Z,99865.13
2023-05-13T06:31:19.144Z,99862.41
2023-05-13T06:33:46.946Z,99864.84
2023-05-13T06:36:14.562Z,99859.44
2023-05-13T06:38:41.424Z,99855.91
2023-05-13T06:41:08.748Z,99851.78
2023-05-13T06:43:38.801Z,99849.81
2023-05-13T06:46:21.585Z,99853.25
2023-05-13T06:48:52.135Z,99841.78
2023-05-13T06:51:19.478Z,99839.50
2023-05-13T06:53:46.412Z,99841.97
2023-05-13T06:56:13.599Z,99841.81
2023-05-13T06:58:40.476Z,99841.22
2023-05-13T07:01:07.756Z,99842.72
2023-05-13T07:03:34.885Z,99843.34
2023-05-13T07:06:02.091Z,99835.94
2023-05-13T07:08:29.269Z,99834.66
2023-05-13T07:10:56.644Z,99831.91
2023-05-13T07:13:23.647Z,99831.09
2023-05-13T07:15:50.948Z,99834.47
2023-05-13T07:18:17.971Z,99837.72
2023-05-13T07:20:45.432Z,99819.16
2023-05-13T07:23:12.496Z,99826.69
2023-05-13T07:25:39.875Z,99832.19
2023-05-13T07:28:07.201Z,99824.63
2023-05-13T07:30:34.745Z,99820.09
2023-05-13T07:33:01.766Z,99820.84
2023-05-13T07:35:29.099Z,99824.66
2023-05-13T07:37:55.991Z,99833.47
2023-05-13T07:40:23.359Z,99819.50
2023-05-13T07:42:50.472Z,99820.25
2023-05-13T07:45:17.957Z,99832.38
2023-05-13T07:47:44.961Z,99825.53
2023-05-13T07:50:12.519Z,99820.09
2023-05-13T07:52:39.525Z,99829.19
2023-05-13T07:55:07.505Z,99826.63
2023-05-13T07:57:34.352Z,99819.00
2023-05-13T08:00:02.595Z,99827.63
2023-05-13T08:02:42.718Z,99825.16
2023-05-13T08:05:11.182Z,99814.63
2023-05-13T08:07:38.479Z,99820.28
2023-05-13T08:10:06.661Z,99816.47
2023-05-13T08:12:33.816Z,99817.06
2023-05-13T08:15:03.895Z,99818.47
2023-05-13T08:17:30.880Z,99814.47
2023-05-13T08:19:59.941Z,99827.38
2023-05-13T08:22:27.515Z,99824.94
2023-05-13T08:24:54.648Z,99816.44
2023-05-13T08:27:21.762Z,99833.16
2023-05-13T08:29:48.994Z,99829.22
2023-05-13T08:32:16.265Z,99832.97
2023-05-13T08:34:43.583Z,99830.00
2023-05-13T08:37:10.592Z,99829.78
2023-05-13T08:39:37.743Z,99828.13
2023-05-13T08:42:08.030Z,99812.72
2023-05-13T08:44:39.863Z,99820.31
2023-05-13T08:47:25.390Z,99810.81
2023-05-13T08:49:53.263Z,99817.56
2023-05-13T08:52:22.819Z,99807.22
2023-05-13T08:54:50.260Z,99802.38
2023-05-13T08:57:17.280Z,99805.94
2023-05-13T08:59:44.701Z,99810.97
2023-05-13T09:02:12.167Z,99804.13
2023-05-13T09:04:42.160Z,99812.41
2023-05-13T09:07:10.440Z,99807.75
2023-05-13T09:09:38.007Z,99802.69
2023-05-13T09:12:05.864Z,99802.69
2023-05-13T09:14:33.206Z,99810.28
2023-05-13T09:17:02.247Z,99803.56
2023-05-13T09:19:30.083Z,99798.69
2023-05-13T09:21:57.573Z,99807.75
2023-05-13T09:24:24.859Z,99795.59
2023-05-13T09:26:52.049Z,99796.44
2023-05-13T09:29:25.928Z,99785.47
2023-05-13T09:31:56.344Z,99781.47
2023-05-13T09:34:31.704Z,99786.09
2023-05-13T09:37:08.634Z,99789.09
2023-05-13T09:39:42.971Z,99774.97
2023-05-13T09:42:17.550Z,99783.31
2023-05-13T09:44:46.575Z,99778.59
2023-05-13T09:47:17.787Z,99782.56
2023-05-13T09:49:56.866Z,99775.91
2023-05-13T09:52:23.861Z,99780.84
2023-05-13T09:54:51.070Z,99775.53
2023-05-13T09:57:18.073Z,99783.69
2023-05-13T09:59:45.224Z,99783.19
2023-05-13T10:02:15.568Z,99786.56
2023-05-13T10:04:43.667Z,99784.44
2023-05-13T10:07:12.405Z,99773.22
2023-05-13T10:09:44.298Z,99784.78
2023-05-13T10:12:14.969Z,99783.41
2023-05-13T10:14:44.098Z,99780.03
2023-05-13T10:17:12.311Z,99779.94
2023-05-13T10:19:40.694Z,99789.09
2023-05-13T10:22:08.457Z,99791.66
2023-05-13T10:24:38.797Z,99788.91
2023-05-13T10:27:08.313Z,99789.16
2023-05-13T10:29:38.823Z,99795.16
2023-05-13T10:32:08.165Z,99788.22
2023-05-13T10:34:38.095Z,99793.66
2023-05-13T10:37:25.627Z,99792.16
2023-05-13T10:40:29.114Z,99789.75
2023-05-13T10:43:20.421Z,99791.66
2023-05-13T10:45:56.450Z,99787.69
2023-05-13T10:48:24.156Z,99786.03
2023-05-13T10:50:57.306Z,99792.53
2023-05-13T10:53:28.652Z,99775.38
2023-05-13T10:55:59.358Z,99783.25
2023-05-13T10:58:32.287Z,99785.34
2023-05-13T11:01:25.203Z,99782.19
2023-05-13T11:03:55.686Z,99783.97
2023-05-13T11:06:29.667Z,99777.19
2023-05-13T11:08:56.653Z,99773.38
2023-05-13T11:11:31.254Z,99776.91
2023-05-13T11:14:22.325Z,99767.47
2023-05-13T11:16:59.761Z,99758.69
2023-05-13T11:19:48.384Z,99761.81
2023-05-13T11:22:26.111Z,99766.75
2023-05-13T11:25:09.297Z,99763.78
2023-05-13T11:27:43.215Z,99756.75
2023-05-13T11:30:24.403Z,99761.44
2023-05-13T11:32:52.248Z,99765.88
2023-05-13T11:35:21.791Z,99763.25
2023-05-13T11:37:49.303Z,99765.66
2023-05-13T11:40:31.634Z,99766.53
2023-05-13T11:43:01.234Z,99773.75
2023-05-13T11:45:30.120Z,99770.28
2023-05-13T11:47:58.048Z,99773.13
2023-05-13T11:50:30.458Z,99775.00
2023-05-13T11:53:02.335Z,99768.09
2023-05-13T11:55:32.622Z,99770.94
2023-05-13T11:58:00.346Z,99769.28
2023-05-13T12:00:33.584Z,99771.97
2023-05-13T12:03:08.917Z,99763.78
2023-05-13T12:05:36.288Z,99762.38
2023-05-13T12:08:03.927Z,99772.19
2023-05-13T12:10:30.921Z,99770.88
2023-05-13T12:12:58.590Z,99765.19
2023-05-13T12:15:26.126Z,99763.34
2023-05-13T12:17:54.552Z,99771.88
2023-05-13T12:20:24.746Z,99761.31
2023-05-13T12:22:56.934Z,99758.38
2023-05-13T12:25:37.106Z,99764.03
2023-05-13T12:28:25.249Z,99767.09
2023-05-13T12:31:02.203Z,99766.56
2023-05-13T12:33:49.918Z,99764.44
2023-05-13T12:36:35.519Z,99765.66
2023-05-13T12:39:11.030Z,99768.28
2023-05-13T12:41:50.793Z,99762.81
2023-05-13T12:44:19.400Z,99763.97
2023-05-13T12:47:02.142Z,99762.78
2023-05-13T12:49:30.162Z,99751.41
2023-05-13T12:51:57.304Z,99758.97
2023-05-13T12:54:24.620Z,99758.78
2023-05-13T12:56:52.317Z,99759.72
2023-05-13T12:59:19.526Z,99768.34
2023-05-13T13:01:48.273Z,99773.41
2023-05-13T13:04:16.966Z,99755.16
2023-05-13T13:06:44.080Z,99766.84
2023-05-13T13:09:11.338Z,99765.31
2023-05-13T13:11:39.175Z,99770.03
2023-05-13T13:14:06.486Z,99761.63
2023-05-13T13:16:33.703Z,99758.72
2023-05-13T13:19:01.944Z,99764.00
2023-05-13T13:21:29.095Z,99761.69
2023-05-13T13:23:56.454Z,99761.84
2023-05-13T13:26:23.665Z,99756.88
2023-05-13T13:28:50.946Z,99756.69
2023-05-13T13:31:18.203Z,99747.66
2023-05-13T13:33:45.674Z,99761.16
2023-05-13T13:36:12.714Z,99763.94
2023-05-13T13:38:40.254Z,99758.78
2023-05-13T13:41:07.550Z,99764.94
2023-05-13T13:43:34.738Z,99758.47
2023-05-13T13:46:02.509Z,99765.53
2023-05-13T13:48:29.804Z,99763.94
2023-05-13T13:50:58.480Z,99754.53
2023-05-13T13:53:25.767Z,99773.59
2023-05-13T13:55:52.760Z,99770.94
2023-05-13T13:58:20.002Z,99771.22
2023-05-13T14:00:46.898Z,99768.44
2023-05-13T14:03:14.283Z,99774.84
2023-05-13T14:05:41.403Z,99773.81
2023-05-13T14:08:08.744Z,99776.50
2023-05-13T14:10:35.721Z,99774.75
2023-05-13T14:13:03.441Z,99777.09
2023-05-13T14:15:30.832Z,99776.00
2023-05-13T14:17:58.169Z,99781.59
2023-05-13T14:20:25.285Z,99777.59
2023-05-13T14:22:52.564Z,99791.47
2023-05-13T14:25:19.454Z,99781.03
2023-05-13T14:27:46.754Z,99787.31
2023-05-13T14:30:13.889Z,99782.84
2023-05-13T14:32:45.703Z,99777.06
2023-05-13T14:35:13.470Z,99788.47
2023-05-13T14:37:41.226Z,99781.41
2023-05-13T14:40:09.657Z,99780.06
2023-05-13T14:42:36.981Z,99789.25
2023-05-13T14:45:04.663Z,99796.03
2023-05-13T14:47:32.168Z,99795.56
2023-05-13T14:49:59.237Z,99799.63
2023-05-13T14:52:26.523Z,99797.75
2023-05-13T14:54:54.235Z,99799.22
2023-05-13T14:57:21.677Z,99793.91
2023-05-13T14:59:48.678Z,99798.22
2023-05-13T15:02:17.295Z,99795.00
2023-05-13T15:04:44.630Z,99799.31
2023-05-13T15:07:11.990Z,99801.63
2023-05-13T15:09:38.977Z,99799.91
2023-05-13T15:12:07.164Z,99796.53
2023-05-13T15:14:34.106Z,99801.59
2023-05-13T15:17:01.405Z,99793.91
2023-05-13T15:19:28.570Z,99794.22
2023-05-13T15:21:55.752Z,99792.84
2023-05-13T15:24:22.727Z,99793.59
2023-05-13T15:26:50.591Z,99788.66
2023-05-13T15:29:17.721Z,99793.16
2023-05-13T15:31:44.877Z,99790.78
2023-05-13T15:34:11.932Z,99794.53
2023-05-13T15:36:39.102Z,99792.94
2023-05-13T15:39:06.697Z,99796.22
2023-05-13T15:41:34.120Z,99789.34
2023-05-13T15:44:01.223Z,99792.28
2023-05-13T15:46:28.646Z,99796.47
2023-05-13T15:48:55.875Z,99789.63
2023-05-13T15:51:23.006Z,99795.66
2023-05-13T15:53:50.783Z,99792.09
2023-05-13T15:56:18.413Z,99793.75
2023-05-13T15:58:45.608Z,99789.94
2023-05-13T16:01:12.924Z,99782.91
2023-05-13T16:03:40.083Z,99784.78
2023-05-13T16:06:07.279Z,99782.31
2023-05-13T16:08:34.224Z,99772.81
2023-05-13T16:11:03.730Z,99767.06
2023-05-13T16:13:30.703Z,99768.75
2023-05-13T16:15:57.938Z,99767.53
2023-05-13T16:18:24.995Z,99771.44
2023-05-13T16:20:52.623Z,99766.31
2023-05-13T16:23:19.644Z,99766.78
2023-05-13T16:25:47.246Z,99765.94
2023-05-13T16:28:14.320Z,99761.31
2023-05-13T16:30:42.543Z,99757.50
2023-05-13T16:33:09.769Z,99767.84
2023-05-13T16:35:37.268Z,99768.44
2023-05-13T16:38:04.533Z,99770.66
2023-05-13T16:40:32.024Z,99769.13
2023-05-13T16:43:02.525Z,99766.00
2023-05-13T16:45:31.100Z,99763.97
2023-05-13T16:48:06.001Z,99757.59
2023-05-13T16:50:33.852Z,99763.38
2023-05-13T16:53:00.752Z,99765.09
2023-05-13T16:55:28.037Z,99763.56
2023-05-13T16:57:55.413Z,99760.66
2023-05-13T17:00:22.810Z,99752.72
2023-05-13T17:02:49.972Z,99750.53
2023-05-13T17:05:18.585Z,99746.19
2023-05-13T17:07:45.583Z,99748.91
2023-05-13T17:10:13.069Z,99753.19
2023-05-13T17:12:40.141Z,99761.38
2023-05-13T17:15:07.985Z,99753.25
2023-05-13T17:17:34.897Z,99745.56
2023-05-13T17:20:02.252Z,99749.97
2023-05-13T17:22:29.145Z,99746.22
2023-05-13T17:24:56.424Z,99741.53
2023-05-13T17:27:23.378Z,99745.78
2023-05-13T17:29:50.628Z,99747.44
2023-05-13T17:32:17.865Z,99741.97
2023-05-13T17:34:45.402Z,99752.28
2023-05-13T17:37:12.278Z,99754.50
2023-05-13T17:39:39.533Z,99756.69
2023-05-13T17:42:06.810Z,99763.72
2023-05-13T17:44:34.072Z,99758.88
2023-05-13T17:47:01.721Z,99756.72
2023-05-13T17:49:29.008Z,99761.66
2023-05-13T17:51:55.888Z,99763.84
2023-05-13T17:54:23.239Z,99761.94
2023-05-13T17:56:50.646Z,99767.94
2023-05-13T17:59:18.130Z,99777.47
2023-05-13T18:05:11.999Z,99770.94
2023-05-13T18:07:39.235Z,99771.00
2023-05-13T18:10:07.408Z,99774.81
2023-05-13T18:12:34.805Z,99776.47
2023-05-13T18:15:01.832Z,99780.78
2023-05-13T18:17:29.120Z,99777.53
2023-05-13T18:19:59.220Z,99782.13
2023-05-13T18:22:27.066Z,99774.81
2023-05-13T18:24:54.096Z,99782.94
2023-05-13T18:27:21.858Z,99783.47
2023-05-13T18:29:48.806Z,99785.63
2023-05-13T18:32:16.017Z,99787.25
2023-05-13T18:34:42.994Z,99793.44
2023-05-13T18:37:10.373Z,99799.13
2023-05-13T18:39:37.501Z,99798.59
2023-05-13T18:42:05.427Z,99796.41
2023-05-13T18:44:32.320Z,99798.81
2023-05-13T18:46:59.720Z,99807.19
2023-05-13T18:49:29.626Z,99805.00
2023-05-13T18:51:56.816Z,99807.91
2023-05-13T18:54:27.574Z,99815.69
2023-05-13T18:56:56.072Z,99812.88
2023-05-13T18:59:23.118Z,99818.22
2023-05-13T19:01:50.596Z,99814.88
2023-05-13T19:04:17.951Z,99822.31
2023-05-13T19:06:45.737Z,99825.50
2023-05-13T19:09:12.644Z,99828.75
2023-05-13T19:11:39.924Z,99835.13
2023-05-13T19:14:07.040Z,99831.72
2023-05-13T19:16:34.461Z,99830.25
2023-05-13T19:19:03.396Z,99837.72
2023-05-13T19:21:30.835Z,99838.41
2023-05-13T19:23:58.628Z,99832.19
2023-05-13T19:26:26.214Z,99835.78
2023-05-13T19:28:53.323Z,99840.03
2023-05-13T19:31:21.895Z,99835.72
2023-05-13T19:33:48.997Z,99835.53
2023-05-13T19:36:16.280Z,99835.53
2023-05-13T19:38:43.419Z,99847.38
2023-05-13T19:41:10.714Z,99840.00
2023-05-13T19:43:37.686Z,99849.69
2023-05-13T19:46:04.999Z,99845.59
2023-05-13T19:48:31.966Z,99841.25
2023-05-13T19:50:59.166Z,99842.84
2023-05-13T19:53:26.170Z,99839.03
2023-05-13T19:55:53.579Z,99837.66
2023-05-13T19:58:20.444Z,99843.75
2023-05-13T20:00:47.775Z,99837.09
2023-05-13T20:03:15.086Z,99838.66
2023-05-13T20:05:42.663Z,99835.34
2023-05-13T20:08:09.624Z,99843.91
2023-05-13T20:10:36.954Z,99835.47
2023-05-13T20:13:04.724Z,99838.16
2023-05-13T20:15:32.478Z,99836.16
2023-05-13T20:17:59.444Z,99836.91
2023-05-13T20:20:26.703Z,99832.53
2023-05-13T20:22:53.616Z,99830.00
2023-05-13T20:25:21.498Z,99830.44
2023-05-13T20:27:48.441Z,99833.53
2023-05-13T20:30:16.505Z,99831.25
2023-05-13T20:32:43.602Z,99826.03
2023-05-13T20:35:11.009Z,99824.06
2023-05-13T20:37:37.973Z,99822.91
2023-05-13T20:40:06.757Z,99826.59
2023-05-13T20:42:33.842Z,99810.84
2023-05-13T20:45:01.136Z,99818.31
2023-05-13T20:47:28.470Z,99811.78
2023-05-13T20:49:55.656Z,99816.00
2023-05-13T20:52:22.558Z,99820.50
2023-05-13T20:54:49.905Z,99822.28
2023-05-13T20:57:16.863Z,99820.09
2023-05-13T20:59:44.162Z,99824.31
2023-05-13T21:02:11.315Z,99821.53
2023-05-13T21:04:38.636Z,99827.56
2023-05-13T21:07:06.686Z,99825.56
2023-05-13T21:09:34.210Z,99827.13
2023-05-13T21:12:01.366Z,99824.06
2023-05-13T21:14:28.727Z,99818.28
2023-05-13T21:16:55.762Z,99819.22
2023-05-13T21:19:24.854Z,99817.81
2023-05-13T21:21:51.771Z,99822.31
2023-05-13T21:24:19.840Z,99816.00
2023-05-13T21:26:47.291Z,99821.53
2023-05-13T21:29:15.162Z,99817.09
2023-05-13T21:31:43.016Z,99820.13
2023-05-13T21:34:10.538Z,99820.63
2023-05-13T21:36:38.930Z,99814.31
2023-05-13T21:39:07.687Z,99821.41
2023-05-13T21:41:36.055Z,99821.31
2023-05-13T21:44:05.442Z,99824.97
2023-05-13T21:46:32.570Z,99826.13
2023-05-13T21:49:00.496Z,99822.97
2023-05-13T21:51:28.630Z,99823.44
2023-05-13T21:53:55.921Z,99826.00
2023-05-13T21:56:22.848Z,99821.00
2023-05-13T21:58:50.536Z,99829.84
2023-05-13T22:01:18.066Z,99830.31
2023-05-13T22:03:45.472Z,99824.34
2023-05-13T22:06:12.415Z,99826.13
2023-05-13T22:08:39.923Z,99832.53
2023-05-13T22:11:07.414Z,99823.31
2023-05-13T22:13:34.668Z,99825.31
2023-05-13T22:16:01.584Z,99832.66
2023-05-13T22:18:29.027Z,99831.47
2023-05-13T22:20:56.242Z,99831.31
2023-05-13T22:23:23.549Z,99828.50
2023-05-13T22:25:50.700Z,99829.00
2023-05-13T22:28:18.032Z,99827.81
2023-05-13T22:30:44.951Z,99829.63
2023-05-13T22:33:12.230Z,99826.25
2023-05-13T22:35:39.444Z,99822.84
2023-05-13T22:38:06.759Z,99822.09
2023-05-13T22:40:33.658Z,99826.72
2023-05-13T22:43:00.984Z,99826.34
2023-05-13T22:45:28.249Z,99828.78
2023-05-13T22:47:55.990Z,99825.53
2023-05-13T22:50:24.567Z,99829.72
2023-05-13T22:52:52.136Z,99833.66
2023-05-13T22:55:19.132Z,99833.53
2023-05-13T22:57:46.319Z,99827.00
2023-05-13T23:00:13.906Z,99830.56
2023-05-13T23:02:41.169Z,99833.47
2023-05-13T23:05:08.405Z,99829.00
2023-05-13T23:07:35.835Z,99828.72
2023-05-13T23:10:02.961Z,99825.28
2023-05-13T23:12:30.597Z,99831.09
2023-05-13T23:14:57.633Z,99820.84
2023-05-13T23:17:24.988Z,99827.69
2023-05-13T23:19:51.876Z,99823.38
2023-05-13T23:22:19.139Z,99816.81
2023-05-13T23:24:46.098Z,99825.31
2023-05-13T23:27:13.442Z,99813.22
2023-05-13T23:29:41.516Z,99808.78
2023-05-13T23:32:09.067Z,99800.94
2023-05-13T23:34:36.116Z,99807.81
2023-05-13T23:37:03.468Z,99807.25
2023-05-13T23:39:30.605Z,99803.25
2023-05-13T23:41:57.993Z,99803.06
2023-05-13T23:44:25.075Z,99800.84
2023-05-13T23:46:52.569Z,99786.84
2023-05-13T23:49:19.774Z,99796.38
2023-05-13T23:51:47.179Z,99790.03
2023-05-13T23:54:14.059Z,99792.31
2023-05-13T23:56:41.360Z,99792.75
2023-05-13T23:59:08.589Z,99792.59
